Terminal Aerodrome Forecast
Issued by NWS

Home | Current Version | Previous Version | Text Only | Print | Product List | Glossary On
Versions: 1 2 3 4 5 6 7 8 9 10 11 12
000
FTUS42 KMLB 291732
TAFTIX
TAF
KTIX 291732Z 2918/3018 09014G21KT P6SM VCSH SCT023 BKN040
      TEMPO 2919/2922 4SM TSRA BKN023CB BKN040
     FM300100 08010KT P6SM VCSH SCT030 BKN250
     FM301100 08011KT P6SM VCSH SCT025 BKN050 BKN250=

USA.gov is the U.S. government's official web portal to all federal, state and local government web resources and services.